Terminal Aerodrome Forecast
Issued by NWS Sterling, VA

Home | Current Version | Previous Version | Text Only | Print | Product List | Glossary On
Versions: 1 2 3 4 5 6 7 8 9 10 11 12 13 14 15 16 17 18 19 20 21 22 23
000
FTUS41 KLWX 221500 AAA
TAFBWI
TAF AMD
KBWI 221502Z 2215/2318 06003KT P6SM OVC050
     FM221800 04004KT 5SM -RA SCT025 OVC040
     FM222300 02005KT P6SM OVC015
     FM230500 01005KT 3SM -RA BR OVC008
     FM231100 33004KT 3SM BR OVC008=

USA.gov is the U.S. government's official web portal to all federal, state and local government web resources and services.